GMT,Max TemperatureF,Mean TemperatureF,Min TemperatureF,Max Dew PointF,MeanDew PointF,Min DewpointF,Max Humidity, Mean Humidity, Min Humidity, Max Sea Level PressureIn, Mean Sea Level PressureIn, Min Sea Level PressureIn, Max VisibilityMiles, Mean VisibilityMiles, Min VisibilityMiles, Max Wind SpeedMPH, Mean Wind SpeedMPH, Max Gust SpeedMPH,PrecipitationIn, CloudCover, Events, WindDirDegrees
2012-12-1,39,36,32,32,28,27,81,74,65,29.95,29.94,29.92,6,6,6,17,9,,0.00,1,,290
2012-12-2,37,32,28,32,28,25,93,85,75,29.98,29.93,29.83,,,,12,5,,0.00,,,249
2012-12-3,37,34,32,34,33,32,100,92,87,29.56,29.46,29.42,6,6,4,138,11,,0.00,3,Rain-Snow,273
2012-12-4,35,34,32,34,31,27,93,88,75,29.68,29.58,29.47,6,6,4,13,6,25,0.00,4,Rain-Snow,18
2012-12-5,35,30,24,30,26,21,87,80,65,29.95,29.89,29.74,6,6,4,10,6,,0.00,2,Snow,302
2012-12-6,37,34,30,34,32,25,100,90,75,29.74,29.44,29.27,6,6,6,20,9,,0.00,4,Rain,264
2012-12-7,42,37,32,36,32,28,87,77,70,30.04,29.79,29.50,6,6,6,13,7,16,0.00,2,,315
2012-12-8,39,36,32,37,33,28,93,90,87,30.12,30.04,29.98,6,6,6,13,6,,0.00,1,,273
2012-12-9,42,40,37,34,32,28,81,72,61,30.09,29.92,29.80,6,6,6,21,14,34,0.00,2,,299
2012-12-10,39,34,28,30,28,25,93,75,70,30.45,30.38,30.27,6,6,6,9,6,,0.00,1,,331
2012-12-11,32,28,24,28,25,21,93,88,80,30.45,30.38,30.27,6,6,6,8,5,,0.00,5,,287
2012-12-12,33,28,23,30,25,21,93,89,86,30.09,29.97,29.86,,,,12,6,,0.00,,,282
2012-12-13,32,28,24,28,25,21,93,89,75,29.74,29.66,29.56,6,6,6,6,2,,0.00,1,Snow,295
2012-12-14,42,38,33,41,36,30,100,91,81,29.24,28.95,28.68,6,4,3,25,17,40,0.00,7,Rain,101
2012-12-15,39,37,35,37,36,34,93,93,87,29.00,28.88,28.74,6,6,6,16,12,,0.00,3,,258
2012-12-16,42,40,39,39,37,36,93,88,81,29.36,29.34,29.33,6,6,6,6,4,,0.00,3,,82
2012-12-17,42,42,41,39,39,37,93,92,87,29.65,29.47,29.36,6,5,2,10,7,,0.00,6,Rain,50
2012-12-18,39,37,35,37,36,34,100,94,87,30.12,30.05,29.92,6,6,6,6,2,,0.00,5,,248
2012-12-19,42,40,39,37,36,36,93,84,81,30.06,29.99,29.92,6,6,6,21,15,25,0.00,6,Rain,120
2012-12-20,42,40,39,39,37,36,93,89,87,29.80,29.70,29.65,6,4,3,30,25,43,0.00,6,Rain,106
2012-12-21,41,39,37,37,36,36,93,89,87,29.89,29.85,29.77,6,5,4,17,14,,0.00,7,Rain,103
2012-12-22,41,39,37,39,38,36,93,92,87,29.65,29.53,29.42,5,4,3,23,22,,0.00,6,Rain,106
2012-12-23,44,42,41,43,38,36,100,85,76,29.36,29.18,28.94,6,6,6,32,21,44,0.00,2,Rain,257
2012-12-24,42,40,37,39,38,36,100,91,81,29.39,29.26,29.15,6,6,6,8,5,,0.00,6,Rain,152
2012-12-25,,,,,,,,,,,,,,,,,,,0.00,,,-1
2012-12-26,39,37,35,34,31,28,81,80,75,29.42,29.36,29.33,6,6,6,14,7,26,0.00,5,,60
2012-12-27,33,32,32,30,26,25,93,75,70,29.92,29.76,29.47,6,6,6,15,9,,0.00,2,Rain-Snow,25
2012-12-28,48,42,37,43,41,36,100,91,82,29.59,29.41,29.24,6,6,3,36,10,,0.00,6,Rain,210
2012-12-29,44,42,39,39,37,36,87,83,76,29.18,29.15,29.12,6,6,5,22,19,,0.00,3,Rain,235
2012-12-30,39,37,35,37,35,32,93,86,81,29.30,29.26,29.24,6,6,6,29,21,,0.00,3,Rain,250
2012-12-31,46,40,33,41,36,30,93,80,66,29.21,29.06,28.94,6,6,6,33,25,45,0.00,3,Rain,250